Time;durP1;ratioP1;P1;durP2;ratioP2;P2;SDS_P1;SDS_P2;PMS_P1;PMS_P2;Temp;Humidity;BMP_temperature;BMP_pressure;BME280_temperature;BME280_humidity;BME280_pressure;Samples;Min_cycle;Max_cycle;Signal;HPM_P1;HPM_P2
2022/07/11 00:01:49;;;;;;;4.00;1.58;;;25.20;50.10;;;;;;5005543;28;22484;-66
2022/07/11 00:04:15;;;;;;;4.53;1.60;;;25.20;50.20;;;;;;5004361;28;20037;-66
2022/07/11 00:06:41;;;;;;;3.33;1.67;;;25.20;50.10;;;;;;5006543;28;20962;-66
2022/07/11 00:09:06;;;;;;;4.03;1.95;;;25.20;50.20;;;;;;5004404;28;20487;-66
2022/07/11 00:11:32;;;;;;;4.70;1.67;;;25.20;50.20;;;;;;5002980;28;20018;-66
2022/07/11 00:13:58;;;;;;;3.28;1.42;;;25.20;50.30;;;;;;4998890;28;20042;-65
2022/07/11 00:16:24;;;;;;;5.32;1.67;;;25.20;50.20;;;;;;5005685;28;20449;-66
2022/07/11 00:18:49;;;;;;;5.10;1.88;;;25.20;50.20;;;;;;5005489;28;20510;-65
2022/07/11 00:21:15;;;;;;;4.78;1.75;;;25.20;50.30;;;;;;5002079;28;20503;-66
2022/07/11 00:23:41;;;;;;;2.92;1.60;;;25.20;50.30;;;;;;5006509;28;20576;-65
2022/07/11 00:26:08;;;;;;;2.10;1.52;;;25.20;50.40;;;;;;5005812;28;20050;-65
2022/07/11 00:28:33;;;;;;;4.32;1.50;;;25.20;50.50;;;;;;5012607;28;20038;-66
2022/07/11 00:30:59;;;;;;;3.00;1.60;;;25.20;50.40;;;;;;5005387;28;20052;-65
2022/07/11 00:33:25;;;;;;;4.30;1.77;;;25.20;50.40;;;;;;5007112;28;20034;-65
2022/07/11 00:35:51;;;;;;;3.00;1.52;;;25.10;50.40;;;;;;5009728;28;20454;-65
2022/07/11 00:38:17;;;;;;;4.55;1.50;;;25.20;50.50;;;;;;5008928;28;20030;-65
2022/07/11 00:40:42;;;;;;;3.20;1.45;;;25.10;50.50;;;;;;5010154;28;20459;-65
2022/07/11 00:43:08;;;;;;;3.92;1.60;;;25.10;50.60;;;;;;5009157;28;20566;-65
2022/07/11 00:45:34;;;;;;;5.35;1.67;;;25.10;50.60;;;;;;5004219;28;20054;-65
2022/07/11 00:48:00;;;;;;;4.32;1.50;;;25.10;50.60;;;;;;5007849;28;20088;-65
2022/07/11 00:50:25;;;;;;;5.38;1.40;;;25.10;50.70;;;;;;5007498;28;20088;-65
2022/07/11 00:52:51;;;;;;;5.80;1.70;;;25.10;50.70;;;;;;5007671;28;20030;-65
2022/07/11 00:55:17;;;;;;;3.72;1.70;;;25.10;50.90;;;;;;5010454;28;20852;-65
2022/07/11 00:57:43;;;;;;;2.70;1.58;;;25.10;50.70;;;;;;5003876;28;20029;-65
2022/07/11 01:00:09;;;;;;;2.88;1.63;;;25.10;50.90;;;;;;5005789;28;20443;-65
2022/07/11 01:02:35;;;;;;;2.92;1.55;;;25.00;50.80;;;;;;5005950;28;20121;-65
2022/07/11 01:05:00;;;;;;;2.60;1.50;;;25.00;50.80;;;;;;5008190;28;20451;-65
2022/07/11 01:07:26;;;;;;;3.50;1.52;;;25.00;50.90;;;;;;5008452;28;20486;-65
2022/07/11 01:10:03;;;;;;;2.95;1.40;;;25.00;50.90;;;;;;5004259;28;20435;-65
2022/07/11 01:12:28;;;;;;;4.05;1.65;;;25.00;51.00;;;;;;5005291;28;20073;-65
2022/07/11 01:14:54;;;;;;;3.55;1.60;;;25.00;50.90;;;;;;5007791;28;20105;-65
2022/07/11 01:17:20;;;;;;;2.88;1.55;;;25.00;50.90;;;;;;5006114;28;20048;-65
2022/07/11 01:19:46;;;;;;;3.80;1.60;;;25.00;51.10;;;;;;5006337;28;20531;-65
2022/07/11 01:22:15;;;;;;;4.93;1.85;;;25.00;51.10;;;;;;5007417;28;20494;-65
2022/07/11 01:24:42;;;;;;;2.85;1.40;;;25.00;51.10;;;;;;5006648;28;20018;-66
2022/07/11 01:27:07;;;;;;;3.25;1.70;;;25.00;51.10;;;;;;5008698;28;20045;-66
2022/07/11 01:29:33;;;;;;;3.40;1.73;;;25.00;51.20;;;;;;5005770;28;20026;-65
2022/07/11 01:31:59;;;;;;;4.65;1.60;;;24.90;51.20;;;;;;5007876;28;20022;-65
2022/07/11 01:34:24;;;;;;;3.63;1.63;;;24.90;51.20;;;;;;5006873;28;20053;-65
2022/07/11 01:36:50;;;;;;;3.15;1.50;;;24.90;51.20;;;;;;5007682;28;20029;-65
2022/07/11 01:39:16;;;;;;;3.80;1.60;;;24.90;51.30;;;;;;5006531;28;20129;-65
2022/07/11 01:41:41;;;;;;;3.78;1.63;;;24.90;51.40;;;;;;5008528;28;20068;-65
2022/07/11 01:44:07;;;;;;;3.90;1.65;;;24.90;51.40;;;;;;5004273;28;20018;-65
2022/07/11 01:46:32;;;;;;;3.65;1.52;;;24.90;51.40;;;;;;5009455;28;20030;-65
2022/07/11 01:48:58;;;;;;;3.58;1.50;;;24.90;51.40;;;;;;5007477;28;20061;-65
2022/07/11 01:51:24;;;;;;;3.33;1.77;;;24.80;51.50;;;;;;5005929;28;20445;-65
2022/07/11 01:53:49;;;;;;;2.13;1.35;;;24.90;51.50;;;;;;5008135;28;20397;-65
2022/07/11 01:56:15;;;;;;;3.40;1.50;;;24.90;51.60;;;;;;5005209;28;20034;-65
2022/07/11 01:58:41;;;;;;;4.05;1.50;;;24.90;51.60;;;;;;5002228;28;20118;-65
2022/07/11 02:01:06;;;;;;;3.80;1.60;;;24.90;51.60;;;;;;5006807;28;20021;-65
2022/07/11 02:03:32;;;;;;;3.88;1.48;;;24.80;51.60;;;;;;5006967;28;20076;-65
2022/07/11 02:05:58;;;;;;;3.50;1.40;;;24.80;51.60;;;;;;5005380;28;20030;-65
2022/07/11 02:08:23;;;;;;;3.72;1.75;;;24.80;51.70;;;;;;5007401;28;20108;-65
2022/07/11 02:10:50;;;;;;;3.53;1.63;;;24.80;51.70;;;;;;5009763;28;20026;-65
2022/07/11 02:13:17;;;;;;;3.60;1.50;;;24.80;51.70;;;;;;5019397;28;20014;-65
2022/07/11 02:15:43;;;;;;;4.65;1.55;;;24.80;51.70;;;;;;5006633;28;20029;-65
2022/07/11 02:18:10;;;;;;;3.20;1.70;;;24.80;51.90;;;;;;5007537;28;20053;-65
2022/07/11 02:20:36;;;;;;;3.03;1.60;;;24.80;51.90;;;;;;5005839;28;20033;-65
2022/07/11 02:23:03;;;;;;;2.17;1.40;;;24.80;51.90;;;;;;5005713;28;20046;-65
2022/07/11 02:25:29;;;;;;;3.42;1.50;;;24.80;51.90;;;;;;5006427;28;20033;-65
2022/07/11 02:27:55;;;;;;;4.88;1.50;;;24.80;51.90;;;;;;5005701;28;20032;-65
2022/07/11 02:30:20;;;;;;;3.55;1.60;;;24.80;52.00;;;;;;5004342;28;20018;-65
2022/07/11 02:32:46;;;;;;;4.05;1.73;;;24.70;51.90;;;;;;5003466;28;20029;-65
2022/07/11 02:35:12;;;;;;;2.40;1.40;;;24.80;52.00;;;;;;5004694;28;20712;-65
2022/07/11 02:37:37;;;;;;;3.22;1.42;;;24.80;52.00;;;;;;5006066;28;20033;-65
2022/07/11 02:40:04;;;;;;;4.45;1.83;;;24.80;52.10;;;;;;5007131;28;20160;-65
2022/07/11 02:42:29;;;;;;;2.83;1.60;;;24.70;52.10;;;;;;5001537;28;20037;-65
2022/07/11 02:44:55;;;;;;;3.35;1.52;;;24.70;52.10;;;;;;5004909;28;20026;-65
2022/07/11 02:47:20;;;;;;;3.28;1.63;;;24.70;52.10;;;;;;5007830;28;20037;-65
2022/07/11 02:49:47;;;;;;;4.13;1.50;;;24.70;52.10;;;;;;5007210;28;20526;-65
2022/07/11 02:52:13;;;;;;;2.95;1.40;;;24.70;52.20;;;;;;5006519;28;20045;-66
2022/07/11 02:54:39;;;;;;;3.30;1.55;;;24.70;52.20;;;;;;5009569;28;20034;-66
2022/07/11 02:57:05;;;;;;;4.18;1.70;;;24.70;52.20;;;;;;5003103;28;20038;-66
2022/07/11 02:59:30;;;;;;;2.80;1.40;;;24.70;52.30;;;;;;5005357;28;20042;-66
2022/07/11 03:01:56;;;;;;;3.17;1.50;;;24.60;52.30;;;;;;5007048;28;20126;-66
2022/07/11 03:04:22;;;;;;;3.55;1.50;;;24.60;52.30;;;;;;5005334;28;20069;-66
2022/07/11 03:06:47;;;;;;;3.58;1.52;;;24.60;52.30;;;;;;5006405;28;20061;-66
2022/07/11 03:09:13;;;;;;;3.35;1.50;;;24.60;52.30;;;;;;5006049;28;20026;-66
2022/07/11 03:11:39;;;;;;;3.92;1.40;;;24.60;52.40;;;;;;5003233;28;20033;-65
2022/07/11 03:14:04;;;;;;;2.55;1.48;;;24.60;52.40;;;;;;5005411;28;20029;-66
2022/07/11 03:16:30;;;;;;;2.70;1.50;;;24.60;52.40;;;;;;5005869;28;20029;-65
2022/07/11 03:18:56;;;;;;;3.70;1.65;;;24.60;52.50;;;;;;5008257;28;20508;-65
2022/07/11 03:21:23;;;;;;;3.20;1.50;;;24.60;52.50;;;;;;5005761;28;20063;-66
2022/07/11 03:23:49;;;;;;;3.88;1.50;;;24.60;52.50;;;;;;5001931;28;20586;-66
2022/07/11 03:26:16;;;;;;;2.58;1.42;;;24.60;52.60;;;;;;5006118;28;20506;-65
2022/07/11 03:28:41;;;;;;;3.83;1.58;;;24.60;52.60;;;;;;5005803;28;20030;-65
2022/07/11 03:31:07;;;;;;;2.83;1.42;;;24.60;52.60;;;;;;5005092;28;20070;-65
2022/07/11 03:33:32;;;;;;;4.88;1.60;;;24.60;52.70;;;;;;5006016;28;20077;-65
2022/07/11 03:35:58;;;;;;;3.25;1.50;;;24.60;52.70;;;;;;5005167;28;20415;-65
2022/07/11 03:38:24;;;;;;;4.28;1.67;;;24.60;52.70;;;;;;5004975;28;20038;-65
2022/07/11 03:40:50;;;;;;;4.68;1.50;;;24.60;52.80;;;;;;5006569;28;20446;-66
2022/07/11 03:43:15;;;;;;;3.20;1.42;;;24.60;52.80;;;;;;5006245;28;20046;-65
2022/07/11 03:45:41;;;;;;;4.22;1.88;;;24.60;52.80;;;;;;5004603;28;20482;-66
2022/07/11 03:48:07;;;;;;;3.42;1.60;;;24.50;52.80;;;;;;5002429;28;20096;-65
2022/07/11 03:50:35;;;;;;;2.40;1.50;;;24.50;52.80;;;;;;5006053;28;20065;-66
2022/07/11 03:53:02;;;;;;;5.18;1.70;;;24.50;52.80;;;;;;5003542;28;20430;-65
2022/07/11 03:55:28;;;;;;;2.80;1.42;;;24.50;52.90;;;;;;5004745;28;20030;-65
2022/07/11 03:57:54;;;;;;;3.60;1.60;;;24.50;52.90;;;;;;5003175;28;20080;-66
2022/07/11 04:00:20;;;;;;;2.67;1.40;;;24.50;53.00;;;;;;5005944;28;20033;-65
2022/07/11 04:02:48;;;;;;;2.80;1.40;;;24.50;53.00;;;;;;5004227;28;20062;-66
2022/07/11 04:05:14;;;;;;;4.13;1.52;;;24.50;53.00;;;;;;5006936;28;20030;-65
2022/07/11 04:07:40;;;;;;;3.03;1.50;;;24.50;52.90;;;;;;5002314;28;20088;-66
2022/07/11 04:10:06;;;;;;;4.15;1.60;;;24.50;53.00;;;;;;5004405;28;22251;-66
2022/07/11 04:12:32;;;;;;;2.35;1.20;;;24.40;53.00;;;;;;5004230;28;20033;-65
2022/07/11 04:14:57;;;;;;;3.47;1.45;;;24.40;53.10;;;;;;5005076;28;20033;-66
2022/07/11 04:17:23;;;;;;;3.70;1.33;;;24.40;53.10;;;;;;5004300;28;20064;-65
2022/07/11 04:19:49;;;;;;;2.88;1.60;;;24.40;53.10;;;;;;5003749;28;20057;-65
2022/07/11 04:22:14;;;;;;;3.35;1.55;;;24.40;53.10;;;;;;5004293;28;20049;-65
2022/07/11 04:24:40;;;;;;;3.25;1.40;;;24.40;53.20;;;;;;4999277;28;20038;-65
2022/07/11 04:27:06;;;;;;;2.63;1.65;;;24.40;53.10;;;;;;5002053;28;20034;-65
2022/07/11 04:29:31;;;;;;;3.42;1.48;;;24.40;53.20;;;;;;5004168;28;20532;-66
2022/07/11 04:31:57;;;;;;;3.58;1.60;;;24.40;53.20;;;;;;5005237;28;20037;-66
2022/07/11 04:34:23;;;;;;;2.38;1.35;;;24.40;53.30;;;;;;5003415;28;20037;-65
2022/07/11 04:36:49;;;;;;;3.13;1.60;;;24.40;53.30;;;;;;5004209;28;20033;-65
2022/07/11 04:39:15;;;;;;;3.53;1.50;;;24.40;53.30;;;;;;5004315;28;20037;-65
2022/07/11 04:41:40;;;;;;;3.05;1.55;;;24.40;53.30;;;;;;5002075;28;20112;-65
2022/07/11 04:44:07;;;;;;;2.10;1.30;;;24.40;53.30;;;;;;5003956;28;20069;-66
2022/07/11 04:46:33;;;;;;;2.45;1.40;;;24.30;53.30;;;;;;5003690;28;20157;-65
2022/07/11 04:48:58;;;;;;;2.90;1.50;;;24.40;53.40;;;;;;5003927;28;20038;-65
2022/07/11 04:51:25;;;;;;;3.58;1.60;;;24.30;53.40;;;;;;5003755;28;20026;-65
2022/07/11 04:53:51;;;;;;;2.38;1.40;;;24.30;53.40;;;;;;4999891;28;20038;-65
2022/07/11 04:56:17;;;;;;;3.10;1.60;;;24.30;53.40;;;;;;5003483;28;20757;-66
2022/07/11 04:58:42;;;;;;;3.55;1.55;;;24.30;53.50;;;;;;5000789;28;20030;-66
2022/07/11 05:01:08;;;;;;;3.25;1.50;;;24.30;53.50;;;;;;5002025;28;20048;-66
2022/07/11 05:03:34;;;;;;;4.68;1.50;;;24.30;53.40;;;;;;5003573;28;20080;-65
2022/07/11 05:06:00;;;;;;;3.53;1.40;;;24.30;53.60;;;;;;5002926;28;20038;-65
2022/07/11 05:08:25;;;;;;;5.13;1.63;;;24.30;53.60;;;;;;5002869;28;20110;-65
2022/07/11 05:10:51;;;;;;;6.38;2.20;;;24.30;53.60;;;;;;5002339;28;20033;-66
2022/07/11 05:13:18;;;;;;;4.60;1.88;;;24.30;53.80;;;;;;5003407;28;20030;-66
2022/07/11 05:15:44;;;;;;;6.97;2.15;;;24.20;53.70;;;;;;5001615;28;20026;-66
2022/07/11 05:18:10;;;;;;;8.18;2.08;;;24.20;53.80;;;;;;5005271;28;20042;-66
2022/07/11 05:20:35;;;;;;;9.07;2.35;;;24.10;53.80;;;;;;5007830;28;20037;-65
2022/07/11 05:23:05;;;;;;;5.60;1.90;;;24.10;53.80;;;;;;5007565;28;20046;-66
2022/07/11 05:25:31;;;;;;;6.40;2.10;;;24.10;54.00;;;;;;5002007;28;20032;-66
2022/07/11 05:27:56;;;;;;;5.70;1.80;;;24.10;54.20;;;;;;5004866;28;20029;-67
2022/07/11 05:30:22;;;;;;;7.10;2.00;;;24.10;54.00;;;;;;5005623;28;20611;-66
2022/07/11 05:32:47;;;;;;;7.18;1.85;;;24.10;54.00;;;;;;5008201;28;20492;-66
2022/07/11 05:35:13;;;;;;;5.03;2.00;;;24.10;54.00;;;;;;5006963;28;20801;-67
2022/07/11 05:37:39;;;;;;;4.45;2.10;;;24.20;54.00;;;;;;5007879;28;20021;-66
2022/07/11 05:40:05;;;;;;;4.90;1.63;;;24.20;54.10;;;;;;5006478;28;20482;-66
2022/07/11 05:42:34;;;;;;;8.27;2.22;;;24.20;54.00;;;;;;5006749;28;20038;-67
2022/07/11 05:44:59;;;;;;;8.70;2.40;;;24.20;54.10;;;;;;5006403;28;20026;-67
2022/07/11 05:47:25;;;;;;;6.80;1.88;;;24.20;54.00;;;;;;5006496;28;20037;-66
2022/07/11 05:49:51;;;;;;;7.20;1.98;;;24.20;54.00;;;;;;5007168;28;20034;-66
2022/07/11 05:52:17;;;;;;;6.47;1.80;;;24.20;54.00;;;;;;5007686;28;20033;-67
2022/07/11 05:54:42;;;;;;;7.60;1.83;;;24.20;54.00;;;;;;5007689;28;20048;-66
2022/07/11 05:57:08;;;;;;;5.72;1.83;;;24.20;54.00;;;;;;5009932;28;20029;-66
2022/07/11 05:59:35;;;;;;;7.82;1.98;;;24.20;54.00;;;;;;5007811;28;20615;-66
2022/07/11 06:02:02;;;;;;;7.03;1.80;;;24.20;54.10;;;;;;5008266;28;20034;-66
2022/07/11 06:04:27;;;;;;;5.75;2.03;;;24.20;54.10;;;;;;5006999;28;20036;-66
2022/07/11 06:06:53;;;;;;;7.45;2.15;;;24.20;54.00;;;;;;5008251;28;20026;-66
2022/07/11 06:09:19;;;;;;;4.20;1.83;;;24.20;54.00;;;;;;5004774;28;20065;-66
2022/07/11 06:11:44;;;;;;;5.78;1.80;;;24.20;54.10;;;;;;5003031;28;20049;-66
2022/07/11 06:14:10;;;;;;;4.32;1.88;;;24.20;54.00;;;;;;5006714;28;20034;-66
2022/07/11 06:16:36;;;;;;;7.63;2.05;;;24.20;54.00;;;;;;5006372;28;20109;-66
2022/07/11 06:19:01;;;;;;;6.90;1.70;;;24.20;54.00;;;;;;5005813;28;20074;-66
2022/07/11 06:21:27;;;;;;;7.10;1.95;;;24.20;54.00;;;;;;5007193;28;20029;-67
2022/07/11 06:23:54;;;;;;;5.55;1.75;;;24.30;54.00;;;;;;5006049;28;20042;-66
2022/07/11 06:26:20;;;;;;;3.47;1.58;;;24.30;54.10;;;;;;5006210;28;20120;-67
2022/07/11 06:28:45;;;;;;;4.78;1.75;;;24.20;54.00;;;;;;5006987;28;20101;-66
2022/07/11 06:31:12;;;;;;;5.10;1.85;;;24.20;54.00;;;;;;5002902;28;20030;-67
2022/07/11 06:33:38;;;;;;;4.82;1.85;;;24.20;54.00;;;;;;5006672;28;20060;-66
2022/07/11 06:36:04;;;;;;;4.80;1.70;;;24.20;54.00;;;;;;5007085;28;20022;-66
2022/07/11 06:38:30;;;;;;;4.53;1.77;;;24.20;54.00;;;;;;5006772;28;20511;-66
2022/07/11 06:40:55;;;;;;;5.93;2.00;;;24.30;54.00;;;;;;5007646;28;20034;-66
2022/07/11 06:43:21;;;;;;;6.47;1.70;;;24.20;54.00;;;;;;5007325;28;20150;-66
2022/07/11 06:45:47;;;;;;;4.40;1.55;;;24.20;54.00;;;;;;5005546;28;20030;-66
2022/07/11 06:48:13;;;;;;;4.25;1.60;;;24.30;54.00;;;;;;5006851;28;20099;-66
2022/07/11 06:50:39;;;;;;;6.80;1.73;;;24.30;54.00;;;;;;5006461;28;20105;-66
2022/07/11 06:53:04;;;;;;;3.40;1.70;;;24.30;54.00;;;;;;5004842;28;20033;-67
2022/07/11 06:55:31;;;;;;;5.00;1.90;;;24.30;54.10;;;;;;5006032;28;20024;-66
2022/07/11 06:57:57;;;;;;;4.13;1.80;;;24.30;54.10;;;;;;5005400;28;20140;-66
2022/07/11 07:00:22;;;;;;;4.28;1.73;;;24.30;54.00;;;;;;5006919;28;20112;-66
2022/07/11 07:02:48;;;;;;;5.25;1.83;;;24.30;54.10;;;;;;5005104;28;20406;-67
2022/07/11 07:05:14;;;;;;;5.18;1.73;;;24.30;54.10;;;;;;5005356;28;20188;-66
2022/07/11 07:07:39;;;;;;;6.25;1.60;;;24.30;54.20;;;;;;5006231;28;20026;-66
2022/07/11 07:10:07;;;;;;;4.97;1.70;;;24.30;54.30;;;;;;5003907;28;20050;-67
2022/07/11 07:12:32;;;;;;;7.13;1.88;;;24.30;54.40;;;;;;5004953;28;20391;-67
2022/07/11 07:15:00;;;;;;;5.55;1.95;;;24.30;54.40;;;;;;5001890;28;20021;-67
2022/07/11 07:17:25;;;;;;;4.28;1.90;;;24.30;55.40;;;;;;5005370;28;20026;-66
2022/07/11 07:19:51;;;;;;;5.95;2.03;;;24.30;54.40;;;;;;5004333;28;20092;-67
2022/07/11 07:22:16;;;;;;;3.92;1.77;;;24.30;54.40;;;;;;5006163;28;20044;-67
2022/07/11 07:24:45;;;;;;;5.05;2.10;;;24.30;54.50;;;;;;5006488;28;20042;-67
2022/07/11 07:27:11;;;;;;;5.00;1.85;;;24.40;54.60;;;;;;5005936;28;20040;-67
2022/07/11 07:29:38;;;;;;;4.47;1.70;;;24.30;54.60;;;;;;5006717;28;20034;-67
2022/07/11 07:32:04;;;;;;;6.60;1.80;;;24.30;54.60;;;;;;5003690;28;20068;-66
2022/07/11 07:34:30;;;;;;;6.30;2.00;;;24.30;54.60;;;;;;5005332;28;20109;-67
2022/07/11 07:36:55;;;;;;;5.57;1.92;;;24.30;54.50;;;;;;5009060;28;20112;-67
2022/07/11 07:39:21;;;;;;;5.28;1.88;;;24.40;54.60;;;;;;5005880;28;20046;-66
2022/07/11 07:41:47;;;;;;;5.95;2.00;;;24.40;54.50;;;;;;5004595;28;20029;-67
2022/07/11 07:44:12;;;;;;;2.97;1.70;;;24.40;54.50;;;;;;5005682;28;20033;-67
2022/07/11 07:46:38;;;;;;;5.15;2.03;;;24.30;54.50;;;;;;5005232;28;20096;-67
2022/07/11 07:49:04;;;;;;;4.80;2.17;;;24.40;54.50;;;;;;5006430;28;20104;-67
2022/07/11 07:51:30;;;;;;;5.38;2.00;;;24.40;54.50;;;;;;5005573;28;20692;-67
2022/07/11 07:53:55;;;;;;;4.88;1.90;;;24.40;54.50;;;;;;5003823;28;20029;-67
2022/07/11 07:56:21;;;;;;;5.57;2.05;;;24.40;54.50;;;;;;5006284;28;20021;-67
2022/07/11 07:58:47;;;;;;;5.13;1.90;;;24.40;54.50;;;;;;5005045;28;20085;-67
2022/07/11 08:03:57;;;;;;;4.80;2.00;;;24.40;54.50;;;;;;5005526;28;20053;-67
2022/07/11 08:06:22;;;;;;;4.80;2.05;;;24.40;54.50;;;;;;5002458;28;20565;-67
2022/07/11 08:08:49;;;;;;;5.10;1.90;;;24.50;54.50;;;;;;5005962;28;20653;-67
2022/07/11 08:11:14;;;;;;;4.43;2.10;;;24.50;54.60;;;;;;5006345;28;20398;-67
2022/07/11 08:13:40;;;;;;;5.05;1.90;;;24.50;54.60;;;;;;5004506;28;20026;-67
2022/07/11 08:16:09;;;;;;;4.38;1.92;;;24.40;54.50;;;;;;5003337;28;20056;-67
2022/07/11 08:18:35;;;;;;;5.28;2.17;;;24.50;54.60;;;;;;5005401;28;20502;-67
2022/07/11 08:21:00;;;;;;;3.58;2.00;;;24.50;54.50;;;;;;5007820;28;20061;-67
2022/07/11 08:23:26;;;;;;;3.97;1.92;;;24.50;54.50;;;;;;5003186;28;20569;-67
2022/07/11 08:25:52;;;;;;;4.40;2.05;;;24.50;54.60;;;;;;5005078;28;20041;-67
2022/07/11 08:28:18;;;;;;;5.32;2.03;;;24.60;54.60;;;;;;5004753;28;20034;-67
2022/07/11 08:30:44;;;;;;;3.72;1.85;;;24.60;54.50;;;;;;5005719;28;20022;-67
2022/07/11 08:33:11;;;;;;;4.78;1.90;;;24.60;54.50;;;;;;5005633;28;20034;-67
2022/07/11 08:35:36;;;;;;;4.32;2.00;;;24.60;54.60;;;;;;5004425;28;20033;-67
2022/07/11 08:38:02;;;;;;;4.72;2.03;;;24.60;54.50;;;;;;5005395;28;20041;-67
2022/07/11 08:40:27;;;;;;;5.30;2.10;;;24.60;54.50;;;;;;5004801;28;20109;-67
2022/07/11 08:42:53;;;;;;;4.65;1.80;;;24.60;54.50;;;;;;5005191;28;20137;-68
2022/07/11 08:45:19;;;;;;;4.47;1.85;;;24.60;54.50;;;;;;4988498;28;20063;-67
2022/07/11 08:47:44;;;;;;;3.20;1.80;;;24.70;54.40;;;;;;4989247;28;20081;-67
2022/07/11 08:50:11;;;;;;;4.10;1.77;;;24.70;54.50;;;;;;5005767;28;20029;-67
2022/07/11 08:52:37;;;;;;;5.50;1.80;;;24.70;54.30;;;;;;5004881;28;20026;-67
2022/07/11 08:55:06;;;;;;;3.65;1.80;;;24.70;54.40;;;;;;5005469;28;20034;-67
2022/07/11 08:57:35;;;;;;;4.32;1.95;;;24.70;54.50;;;;;;5007167;28;20123;-67
2022/07/11 09:00:01;;;;;;;3.00;1.70;;;24.70;54.50;;;;;;5007984;28;20554;-67
2022/07/11 09:02:26;;;;;;;4.75;1.90;;;24.80;54.40;;;;;;5009179;28;20037;-67
2022/07/11 09:04:52;;;;;;;4.20;2.00;;;24.80;54.60;;;;;;5007676;28;20049;-67
2022/07/11 09:07:17;;;;;;;4.47;1.98;;;24.80;54.50;;;;;;5008860;28;20474;-67
2022/07/11 09:10:02;;;;;;;4.18;1.88;;;24.80;54.50;;;;;;5008356;28;20406;-68
2022/07/11 09:12:28;;;;;;;4.10;1.70;;;24.80;54.40;;;;;;5007971;28;20491;-67
2022/07/11 09:14:54;;;;;;;4.45;2.00;;;24.80;54.30;;;;;;5004373;28;20026;-67
2022/07/11 09:17:26;;;;;;;3.22;1.90;;;24.80;54.30;;;;;;5006463;28;20033;-67
2022/07/11 09:19:52;;;;;;;2.78;1.85;;;24.80;54.30;;;;;;5004699;28;20046;-68
2022/07/11 09:25:23;;;;;;;5.40;1.92;;;24.90;54.50;;;;;;5005591;28;20077;-68
2022/07/11 09:27:53;;;;;;;3.85;1.88;;;24.90;54.30;;;;;;5008585;28;20034;-68
2022/07/11 09:30:23;;;;;;;4.28;2.00;;;25.00;54.30;;;;;;5010343;28;20033;-68
2022/07/11 09:32:54;;;;;;;3.70;1.90;;;25.00;54.40;;;;;;5007450;28;20050;-67
2022/07/11 09:35:21;;;;;;;3.10;1.67;;;24.90;54.30;;;;;;5009157;28;20025;-67
2022/07/11 09:37:48;;;;;;;3.70;1.95;;;25.00;54.40;;;;;;5003930;28;20014;-68
2022/07/11 09:40:14;;;;;;;5.22;2.20;;;25.00;54.30;;;;;;5002393;28;20085;-67
2022/07/11 09:42:54;;;;;;;3.80;1.80;;;25.00;54.30;;;;;;5005759;28;20107;-67
2022/07/11 09:45:20;;;;;;;4.55;1.70;;;25.00;54.30;;;;;;5004213;28;20440;-67
2022/07/11 09:47:47;;;;;;;4.38;2.00;;;25.00;54.30;;;;;;5016015;28;20109;-67
2022/07/11 09:50:13;;;;;;;3.95;1.88;;;25.20;54.40;;;;;;5004662;28;20032;-67
2022/07/11 09:53:08;;;;;;;4.95;1.70;;;25.20;54.30;;;;;;5005313;28;20493;-67
2022/07/11 09:55:52;;;;;;;3.85;1.70;;;25.20;54.30;;;;;;5001854;28;20057;-67
2022/07/11 09:58:18;;;;;;;6.30;2.28;;;25.20;54.30;;;;;;5003191;28;20124;-67
2022/07/11 10:00:44;;;;;;;5.22;1.83;;;25.20;54.30;;;;;;5002142;28;20422;-67
2022/07/11 10:03:11;;;;;;;4.20;1.70;;;25.20;54.20;;;;;;5008584;28;20038;-67
2022/07/11 10:05:37;;;;;;;4.80;1.83;;;25.20;54.30;;;;;;5003933;28;20026;-67
2022/07/11 10:08:03;;;;;;;4.60;2.00;;;25.30;54.40;;;;;;5006258;28;20048;-68
2022/07/11 10:10:29;;;;;;;5.18;1.90;;;25.30;54.30;;;;;;5004209;28;20079;-68
2022/07/11 10:12:55;;;;;;;3.55;1.90;;;25.40;54.50;;;;;;5001048;28;20100;-68
2022/07/11 10:18:35;;;;;;;6.22;2.30;;;25.50;54.40;;;;;;5003582;28;20049;-68
2022/07/11 10:21:12;;;;;;;6.40;2.60;;;25.40;54.20;;;;;;5004597;28;20046;-68
2022/07/11 10:23:49;;;;;;;7.03;2.25;;;25.40;53.80;;;;;;5018471;28;20053;-68
2022/07/11 10:26:25;;;;;;;5.80;1.98;;;25.40;53.10;;;;;;5003594;28;20030;-67
2022/07/11 10:29:07;;;;;;;7.57;2.25;;;25.40;53.10;;;;;;5007407;28;20026;-67
2022/07/11 10:31:34;;;;;;;5.72;2.00;;;25.50;53.20;;;;;;5019731;28;20390;-67
2022/07/11 10:34:01;;;;;;;9.23;2.30;;;25.50;53.10;;;;;;5002838;28;20049;-67
2022/07/11 10:36:27;;;;;;;7.97;2.25;;;25.50;53.20;;;;;;5008161;28;20037;-67
2022/07/11 10:39:24;;;;;;;6.18;2.00;;;25.50;53.10;;;;;;5005325;28;20467;-67
2022/07/11 10:41:50;;;;;;;5.57;2.00;;;25.50;53.20;;;;;;5006563;28;20025;-67
2022/07/11 10:44:16;;;;;;;5.43;2.30;;;25.50;53.20;;;;;;5008510;28;20520;-67
2022/07/11 10:46:42;;;;;;;3.58;2.00;;;25.50;53.30;;;;;;5007630;28;20028;-67
2022/07/11 10:49:14;;;;;;;6.95;2.10;;;25.50;53.40;;;;;;5006641;28;20030;-67
2022/07/11 10:51:59;;;;;;;4.63;1.98;;;25.40;53.50;;;;;;5006964;28;20065;-67
2022/07/11 10:54:44;;;;;;;5.60;1.90;;;25.40;53.60;;;;;;5001732;28;20117;-67
2022/07/11 10:57:13;;;;;;;6.38;2.10;;;25.40;53.80;;;;;;5005895;28;20026;-67
2022/07/11 10:59:57;;;;;;;6.32;1.95;;;25.40;53.80;;;;;;5005266;28;20034;-67
2022/07/11 11:02:23;;;;;;;6.40;2.38;;;25.40;53.90;;;;;;5006323;28;20113;-67
2022/07/11 11:04:58;;;;;;;4.15;1.98;;;25.40;54.00;;;;;;5006890;28;20116;-67
2022/07/11 11:07:44;;;;;;;4.43;1.80;;;25.40;54.10;;;;;;5006790;28;20029;-67
2022/07/11 11:10:19;;;;;;;7.05;2.33;;;25.40;54.20;;;;;;5005285;28;20418;-67
2022/07/11 11:13:07;;;;;;;;;;;25.40;54.20;;;;;;5007596;28;20030;-67
2022/07/11 11:15:32;;;;;;;5.20;1.95;;;25.40;54.20;;;;;;5006193;28;19913;-67
2022/07/11 11:17:58;;;;;;;4.65;2.00;;;25.40;54.30;;;;;;5008447;28;20088;-66
2022/07/11 11:20:33;;;;;;;6.20;1.83;;;25.40;54.40;;;;;;4989487;28;20030;-67
2022/07/11 11:23:08;;;;;;;5.65;2.15;;;25.40;54.40;;;;;;5005668;28;20719;-67
2022/07/11 11:25:34;;;;;;;5.38;2.30;;;25.40;54.50;;;;;;5006106;28;20056;-67
2022/07/11 11:28:03;;;;;;;3.63;1.92;;;25.40;54.50;;;;;;5005393;28;20630;-67
2022/07/11 11:30:31;;;;;;;5.00;1.98;;;25.40;54.60;;;;;;5003529;28;20014;-67
2022/07/11 11:32:56;;;;;;;4.30;1.85;;;25.40;54.70;;;;;;4990540;28;20026;-67
2022/07/11 11:35:22;;;;;;;3.88;2.08;;;25.40;54.70;;;;;;5006072;28;20034;-67
2022/07/11 11:37:48;;;;;;;5.47;2.20;;;25.40;54.70;;;;;;5004501;28;20021;-67
2022/07/11 11:40:14;;;;;;;6.25;2.10;;;25.40;54.70;;;;;;5000326;28;20029;-67
2022/07/11 11:42:40;;;;;;;5.07;2.10;;;25.40;54.80;;;;;;5006441;28;20022;-67
2022/07/11 11:45:07;;;;;;;5.35;2.10;;;25.40;54.70;;;;;;5005274;28;20058;-67
2022/07/11 11:47:35;;;;;;;4.82;1.95;;;25.50;54.90;;;;;;5006433;28;20430;-67
2022/07/11 11:50:01;;;;;;;5.28;2.10;;;25.40;54.90;;;;;;5001312;28;20030;-67
2022/07/11 11:52:28;;;;;;;6.50;2.33;;;25.40;54.90;;;;;;5005815;28;20404;-67
2022/07/11 11:54:55;;;;;;;5.20;1.95;;;25.40;54.90;;;;;;5005425;28;20534;-67
2022/07/11 11:57:22;;;;;;;3.20;1.90;;;25.40;54.90;;;;;;5006534;28;20045;-66
2022/07/11 11:59:49;;;;;;;5.32;2.00;;;25.50;55.10;;;;;;5005727;28;20108;-67
2022/07/11 12:02:21;;;;;;;4.93;2.00;;;25.50;55.10;;;;;;5005033;28;20751;-67
2022/07/11 12:04:46;;;;;;;4.50;1.90;;;25.50;55.10;;;;;;5006733;28;20380;-67
2022/07/11 12:07:12;;;;;;;4.57;1.80;;;25.40;54.90;;;;;;5004108;28;20029;-67
2022/07/11 12:09:46;;;;;;;3.05;1.92;;;25.50;55.10;;;;;;5004471;28;20084;-67
2022/07/11 12:15:00;;;;;;;3.80;1.90;;;25.50;55.10;;;;;;5003991;28;20084;-67
2022/07/11 12:17:26;;;;;;;2.97;1.90;;;25.50;55.00;;;;;;5005804;28;20034;-66
2022/07/11 12:19:52;;;;;;;4.53;2.05;;;25.50;55.10;;;;;;5005512;28;20067;-67
2022/07/11 12:22:18;;;;;;;3.65;1.90;;;25.50;55.00;;;;;;5004708;28;20037;-67
2022/07/11 12:24:50;;;;;;;3.50;1.95;;;25.60;55.20;;;;;;5005115;28;20148;-67
2022/07/11 12:27:20;;;;;;;3.28;2.00;;;25.60;55.20;;;;;;5005901;28;20041;-67
2022/07/11 12:29:50;;;;;;;4.05;1.98;;;25.60;55.00;;;;;;5003592;28;20025;-67
2022/07/11 12:32:17;;;;;;;4.13;1.80;;;25.60;55.20;;;;;;5003276;28;20095;-67
2022/07/11 12:34:46;;;;;;;4.70;2.00;;;25.60;55.10;;;;;;5001820;28;20398;-67
2022/07/11 12:37:13;;;;;;;3.65;1.80;;;25.60;54.90;;;;;;5005130;28;20029;-67
2022/07/11 12:39:49;;;;;;;4.97;2.05;;;25.60;55.10;;;;;;5002757;28;20033;-67
2022/07/11 12:42:34;;;;;;;5.15;1.90;;;25.60;55.00;;;;;;5003183;28;20038;-67
2022/07/11 12:45:08;;;;;;;3.90;1.98;;;25.60;55.00;;;;;;5002821;28;20084;-67
2022/07/11 12:47:53;;;;;;;5.53;2.20;;;25.60;55.00;;;;;;5001100;28;20018;-67
2022/07/11 12:50:26;;;;;;;3.33;1.80;;;25.60;55.20;;;;;;5004327;28;20116;-67
2022/07/11 12:52:54;;;;;;;4.13;1.88;;;25.60;54.90;;;;;;5001196;28;20100;-67
2022/07/11 12:55:32;;;;;;;2.47;1.60;;;25.70;54.80;;;;;;5002723;28;20026;-67
2022/07/11 12:58:08;;;;;;;5.57;1.95;;;25.70;55.00;;;;;;5006185;28;20030;-67
2022/07/11 13:00:36;;;;;;;4.00;1.90;;;25.70;54.90;;;;;;5005491;28;20123;-67